Wetterdaten: aktuell Freitag, 08.12.2017 17:00
Datum Zeit Temp. I. Temp. A. Feuchte I. Feuchte A. Luftdruck Regen Wind Richtung Richtung Taupunkt Windchill
08.12.2017 17:00 22,4 C 0,6 C 29 % 87 % 1006 hPa 0,0 mm 8,6 km/h (2 Bft) S-SW45 200 -1,3 C -2,2 C
08.12.2017 16:00 22,3 C 1,3 C 30 % 87 % 1006 hPa 0,0 mm 8,6 km/h (2 Bft) SW 225 -0,6 C -1,4 C
08.12.2017 15:00 22,0 C 1,4 C 30 % 86 % 1005 hPa 0,0 mm 5,8 km/h (2 Bft) W 270 -0,7 C -0,3 C
08.12.2017 14:00 21,7 C 1,9 C 33 % 87 % 1005 hPa 0,5 mm 19,1 km/h (3 Bft) W-SW45 245 -0,0 C -2,7 C
08.12.2017 13:00 21,3 C 2,2 C 33 % 86 % 1004 hPa 0,0 mm 13,7 km/h (3 Bft) W-SW45 245 0,1 C -1,5 C
08.12.2017 12:00 21,1 C 2,7 C 32 % 85 % 1004 hPa 0,0 mm 18,0 km/h (3 Bft) S-SW45 200 0,4 C -1,6 C
08.12.2017 11:00 21,3 C 2,4 C 32 % 85 % 1004 hPa 0,0 mm 12,2 km/h (2 Bft) W-SW45 245 0,1 C -0,9 C
08.12.2017 10:00 21,7 C 2,4 C 31 % 84 % 1004 hPa 0,0 mm 22,0 km/h (4 Bft) S-SO45 155 -0,0 C -2,5 C
08.12.2017 09:00 20,9 C 2,2 C 34 % 83 % 1004 hPa 0,0 mm 20,9 km/h (4 Bft) W-SW45 245 -0,4 C -2,6 C
08.12.2017 08:00 20,5 C 2,1 C 34 % 86 % 1004 hPa 0,0 mm 12,6 km/h (3 Bft) SW 225 0,0 C -1,4 C
08.12.2017 07:00 20,4 C 2,8 C 33 % 86 % 1004 hPa 0,0 mm 14,8 km/h (3 Bft) S-SW45 200 0,7 C -0,9 C
08.12.2017 06:00 20,2 C 3,8 C 34 % 86 % 1004 hPa 0,0 mm 10,8 km/h (2 Bft) W 270 1,7 C 1,0 C
08.12.2017 05:00 19,9 C 3,9 C 33 % 87 % 1004 hPa 0,0 mm 5,4 km/h (1 Bft) W-SW45 245 1,9 C 2,7 C
08.12.2017 04:00 20,0 C 4,2 C 34 % 87 % 1004 hPa 0,0 mm 8,6 km/h (2 Bft) W-SW45 245 2,2 C 2,0 C
08.12.2017 03:00 20,1 C 4,3 C 34 % 87 % 1004 hPa 0,0 mm 5,8 km/h (2 Bft) SW 225 2,3 C 3,0 C
08.12.2017 02:00 20,3 C 4,8 C 34 % 87 % 1004 hPa 0,0 mm 12,6 km/h (3 Bft) SW 225 2,8 C 1,9 C
08.12.2017 01:00 20,4 C 5,4 C 34 % 86 % 1004 hPa 0,0 mm 8,6 km/h (2 Bft) S-SO45 155 3,3 C 3,5 C
08.12.2017 00:00 20,6 C 5,8 C 34 % 85 % 1004 hPa 0,0 mm 13,0 km/h (3 Bft) W 270 3,5 C 3,1 C
07.12.2017 23:00 20,8 C 5,9 C 34 % 85 % 1003 hPa 0,5 mm 6,5 km/h (2 Bft) W-SW45 245 3,6 C 4,6 C
07.12.2017 22:00 21,0 C 6,1 C 33 % 85 % 1003 hPa 0,5 mm 9,0 km/h (2 Bft) W-SW45 245 3,8 C 4,2 C
07.12.2017 21:00 21,1 C 6,1 C 33 % 85 % 1003 hPa 1,6 mm 16,6 km/h (3 Bft) W 270 3,8 C 2,9 C
07.12.2017 20:00 21,4 C 5,8 C 32 % 86 % 1003 hPa 2,1 mm 15,5 km/h (3 Bft) S 180 3,6 C 2,7 C
07.12.2017 19:00 21,5 C 5,6 C 32 % 86 % 1004 hPa 2,1 mm 28,8 km/h (4 Bft) S 180 3,4 C 0,9 C
07.12.2017 18:00 21,7 C 5,2 C 31 % 87 % 1004 hPa 0,0 mm 10,1 km/h (2 Bft) S 180 3,2 C 2,9 C
_ Min-Zeit 05:00 17:00 17:00 09:00 20:00 - 05:00 - - 17:00 14:00
Minimum _ 19,9 C 0,6 C 29 % 83 % 1003 hPa - 5,4 km/h (1 Bft) - - -1,3 C -2,7 C
_ Max-Zeit 17:00 21:00 23:00 18:00 16:00 19:00 19:00 - - 21:00 23:00
Maximum _ 22,4 C 6,1 C 34 % 87 % 1006 hPa 2,1 mm 28,8 km/h
S (4 Bft)
- - 3,8 C 4,6 C
Durchschnitt _ 21,1 C 3,8 C 33 % 86 % 1004 hPa #7,3 mm 12,7 km/h (3 Bft) W-SW - 1,6 C 0,8 C